createdAt,value
2018-09-06T00:01:17.348Z,97483.65
2018-09-06T00:03:46.392Z,97488.25
2018-09-06T00:06:15.801Z,97491.87
2018-09-06T00:08:45.256Z,97495.52
2018-09-06T00:11:14.714Z,97489.84
2018-09-06T00:13:43.917Z,97491.04
2018-09-06T00:16:13.205Z,97489.70
2018-09-06T00:18:42.487Z,97486.45
2018-09-06T00:21:11.709Z,97486.20
2018-09-06T00:23:41.094Z,97481.12
2018-09-06T00:26:10.460Z,97488.52
2018-09-06T00:28:39.483Z,97491.05
2018-09-06T00:31:08.573Z,97487.89
2018-09-06T00:33:37.800Z,97492.38
2018-09-06T00:36:07.073Z,97492.23
2018-09-06T00:38:36.385Z,97493.59
2018-09-06T00:41:05.671Z,97482.77
2018-09-06T00:43:35.151Z,97485.91
2018-09-06T00:46:04.280Z,97476.09
2018-09-06T00:48:33.629Z,97481.07
2018-09-06T00:51:02.940Z,97486.14
2018-09-06T00:53:32.230Z,97482.62
2018-09-06T00:56:01.532Z,97479.60
2018-09-06T00:58:30.685Z,97473.65
2018-09-06T01:00:59.885Z,97467.59
2018-09-06T01:03:28.906Z,97472.93
2018-09-06T01:05:57.927Z,97466.73
2018-09-06T01:08:27.239Z,97462.86
2018-09-06T01:10:56.607Z,97466.23
2018-09-06T01:13:25.570Z,97466.71
2018-09-06T01:15:55.102Z,97465.17
2018-09-06T01:18:24.131Z,97470.11
2018-09-06T01:20:53.387Z,97458.95
2018-09-06T01:23:22.647Z,97464.53
2018-09-06T01:25:52.035Z,97460.55
2018-09-06T01:28:21.845Z,97464.78
2018-09-06T01:30:51.259Z,97473.47
2018-09-06T01:33:20.522Z,97470.22
2018-09-06T01:35:54.745Z,97475.44
2018-09-06T01:38:23.924Z,97474.48
2018-09-06T01:40:53.349Z,97474.73
2018-09-06T01:43:22.615Z,97469.66
2018-09-06T01:45:51.804Z,97475.19
2018-09-06T01:48:21.040Z,97465.77
2018-09-06T01:50:50.195Z,97467.34
2018-09-06T01:53:19.512Z,97465.11
2018-09-06T01:55:48.964Z,97455.56
2018-09-06T01:58:18.191Z,97459.78
2018-09-06T02:00:47.664Z,97456.28
2018-09-06T02:03:16.620Z,97447.11
2018-09-06T02:05:45.890Z,97450.98
2018-09-06T02:08:15.198Z,97447.25
2018-09-06T02:10:44.281Z,97447.48
2018-09-06T02:13:13.604Z,97446.14
2018-09-06T02:15:42.883Z,97446.14
2018-09-06T02:18:11.911Z,97443.62
2018-09-06T02:20:41.080Z,97438.80
2018-09-06T02:23:10.367Z,97440.14
2018-09-06T02:25:39.536Z,97436.12
2018-09-06T02:28:08.968Z,97444.73
2018-09-06T02:30:38.163Z,97448.36
2018-09-06T02:33:07.182Z,97439.16
2018-09-06T02:35:36.280Z,97451.61
2018-09-06T02:38:05.552Z,97444.35
2018-09-06T02:40:38.724Z,97443.64
2018-09-06T02:43:09.197Z,97445.22
2018-09-06T02:45:38.435Z,97439.90
2018-09-06T02:48:07.751Z,97442.69
2018-09-06T02:50:42.333Z,97443.41
2018-09-06T02:53:11.539Z,97446.79
2018-09-06T02:55:40.971Z,97442.64
2018-09-06T02:58:10.219Z,97448.81
2018-09-06T03:00:39.943Z,97450.24
2018-09-06T03:03:09.169Z,97453.41
2018-09-06T03:05:38.496Z,97452.17
2018-09-06T03:08:07.409Z,97452.43
2018-09-06T03:10:43.588Z,97450.37
2018-09-06T03:13:13.091Z,97447.83
2018-09-06T03:15:42.561Z,97449.88
2018-09-06T03:18:11.879Z,97452.41
2018-09-06T03:20:40.999Z,97443.09
2018-09-06T03:23:10.136Z,97445.86
2018-09-06T03:25:39.291Z,97442.98
2018-09-06T03:28:08.783Z,97451.42
2018-09-06T03:30:38.083Z,97451.28
2018-09-06T03:33:07.436Z,97449.22
2018-09-06T03:35:36.640Z,97455.14
2018-09-06T03:38:05.953Z,97454.16
2018-09-06T03:40:34.923Z,97455.67
2018-09-06T03:43:03.983Z,97454.58
2018-09-06T03:45:33.267Z,97455.91
2018-09-06T03:48:02.661Z,97461.23
2018-09-06T03:50:32.143Z,97457.83
2018-09-06T03:53:01.786Z,97461.08
2018-09-06T03:55:30.750Z,97463.48
2018-09-06T03:57:59.867Z,97459.84
2018-09-06T04:00:29.227Z,97464.95
2018-09-06T04:02:58.402Z,97469.54
2018-09-06T04:05:27.843Z,97465.66
2018-09-06T04:07:57.263Z,97469.30
2018-09-06T04:10:26.567Z,97471.02
2018-09-06T04:12:55.682Z,97468.95
2018-09-06T04:15:25.048Z,97477.05
2018-09-06T04:17:54.307Z,97481.27
2018-09-06T04:20:23.685Z,97479.23
2018-09-06T04:22:53.255Z,97483.84
2018-09-06T04:25:22.339Z,97485.17
2018-09-06T04:27:51.809Z,97490.50
2018-09-06T04:30:21.047Z,97494.48
2018-09-06T04:32:50.204Z,97498.63
2018-09-06T04:35:19.669Z,97498.63
2018-09-06T04:37:49.072Z,97500.91
2018-09-06T04:40:18.402Z,97505.34
2018-09-06T04:42:47.564Z,97503.77
2018-09-06T04:45:16.645Z,97508.00
2018-09-06T04:47:45.856Z,97505.34
2018-09-06T04:50:15.181Z,97506.94
2018-09-06T04:52:44.348Z,97512.61
2018-09-06T04:55:13.753Z,97512.41
2018-09-06T04:57:43.040Z,97512.79
2018-09-06T05:00:12.475Z,97518.59
2018-09-06T05:02:41.941Z,97521.72
2018-09-06T05:05:11.127Z,97519.33
2018-09-06T05:07:40.216Z,97516.40
2018-09-06T05:10:09.588Z,97517.05
2018-09-06T05:12:38.754Z,97514.14
2018-09-06T05:15:08.166Z,97519.48
2018-09-06T05:17:37.767Z,97517.80
2018-09-06T05:20:06.956Z,97518.32
2018-09-06T05:22:35.980Z,97518.92
2018-09-06T05:25:05.435Z,97526.42
2018-09-06T05:27:34.634Z,97521.13
2018-09-06T05:30:03.989Z,97519.31
2018-09-06T05:32:33.325Z,97524.53
2018-09-06T05:35:02.547Z,97528.70
2018-09-06T05:37:31.921Z,97521.22
2018-09-06T05:40:01.430Z,97522.17
2018-09-06T05:42:30.618Z,97525.44
2018-09-06T05:45:00.038Z,97533.81
2018-09-06T05:47:29.256Z,97527.61
2018-09-06T05:49:58.480Z,97528.84
2018-09-06T05:52:27.447Z,97531.25
2018-09-06T05:54:56.531Z,97526.77
2018-09-06T05:57:25.821Z,97529.09
2018-09-06T05:59:54.667Z,97535.98
2018-09-06T06:02:23.989Z,97536.98
2018-09-06T06:04:52.919Z,97531.52
2018-09-06T06:07:23.437Z,97532.83
2018-09-06T06:09:52.405Z,97536.48
2018-09-06T06:12:21.484Z,97528.59
2018-09-06T06:14:50.499Z,97531.98
2018-09-06T06:17:19.660Z,97534.78
2018-09-06T06:19:49.018Z,97533.94
2018-09-06T06:22:18.143Z,97533.30
2018-09-06T06:24:47.588Z,97530.55
2018-09-06T06:27:16.900Z,97533.91
2018-09-06T06:29:46.383Z,97527.13
2018-09-06T06:32:15.794Z,97534.16
2018-09-06T06:34:44.934Z,97535.95
2018-09-06T06:37:14.078Z,97536.30
2018-09-06T06:39:43.271Z,97539.22
2018-09-06T06:42:12.688Z,97540.76
2018-09-06T06:44:41.880Z,97536.36
2018-09-06T06:47:11.135Z,97538.06
2018-09-06T06:49:40.336Z,97532.67
2018-09-06T06:52:09.519Z,97542.59
2018-09-06T06:54:38.811Z,97543.86
2018-09-06T06:57:08.232Z,97539.05
2018-09-06T06:59:37.168Z,97537.17
2018-09-06T07:02:06.412Z,97532.37
2018-09-06T07:04:35.615Z,97540.28
2018-09-06T07:07:04.845Z,97538.66
2018-09-06T07:09:34.000Z,97541.75
2018-09-06T07:12:03.441Z,97533.83
2018-09-06T07:14:32.658Z,97534.98
2018-09-06T07:17:02.576Z,97535.05
2018-09-06T07:19:31.667Z,97536.14
2018-09-06T07:22:00.845Z,97534.57
2018-09-06T07:24:29.956Z,97536.36
2018-09-06T07:26:59.195Z,97535.74
2018-09-06T07:29:28.367Z,97534.43
2018-09-06T07:31:57.734Z,97533.81
2018-09-06T07:34:27.119Z,97526.09
2018-09-06T07:36:56.012Z,97530.53
2018-09-06T07:39:25.432Z,97525.38
2018-09-06T07:41:54.304Z,97523.56
2018-09-06T07:44:23.555Z,97528.77
2018-09-06T07:46:52.845Z,97533.33
2018-09-06T07:49:21.743Z,97538.08
2018-09-06T07:51:50.996Z,97534.72
2018-09-06T07:54:20.247Z,97538.28
2018-09-06T07:56:49.592Z,97545.55
2018-09-06T07:59:18.756Z,97540.05
2018-09-06T08:01:47.653Z,97545.75
2018-09-06T08:04:17.158Z,97546.98
2018-09-06T08:06:46.183Z,97548.63
2018-09-06T08:09:15.072Z,97550.49
2018-09-06T08:11:44.478Z,97545.73
2018-09-06T08:14:13.761Z,97542.70
2018-09-06T08:16:42.939Z,97543.35
2018-09-06T08:19:12.539Z,97548.33
2018-09-06T08:21:41.456Z,97545.08
2018-09-06T08:24:10.500Z,97546.48
2018-09-06T08:26:39.961Z,97547.50
2018-09-06T08:29:09.175Z,97541.92
2018-09-06T08:31:38.503Z,97540.09
2018-09-06T08:34:07.395Z,97540.64
2018-09-06T08:36:36.551Z,97544.76
2018-09-06T08:39:08.193Z,97546.37
2018-09-06T08:41:37.955Z,97539.23
2018-09-06T08:44:07.021Z,97542.62
2018-09-06T08:46:36.308Z,97533.98
2018-09-06T08:49:05.506Z,97538.53
2018-09-06T08:51:34.844Z,97537.17
2018-09-06T08:54:04.028Z,97539.69
2018-09-06T08:56:33.052Z,97537.25
2018-09-06T08:59:02.484Z,97537.72
2018-09-06T09:01:36.479Z,97527.42
2018-09-06T09:04:05.704Z,97527.59
2018-09-06T09:06:34.896Z,97526.35
2018-09-06T09:09:05.616Z,97526.06
2018-09-06T09:11:34.914Z,97522.32
2018-09-06T09:14:04.252Z,97521.52
2018-09-06T09:16:33.516Z,97522.05
2018-09-06T09:19:02.808Z,97522.81
2018-09-06T09:21:32.272Z,97526.09
2018-09-06T09:24:01.250Z,97517.30
2018-09-06T09:26:30.709Z,97515.59
2018-09-06T09:28:59.780Z,97516.08
2018-09-06T09:31:29.059Z,97509.37
2018-09-06T09:33:58.339Z,97509.70
2018-09-06T09:36:27.705Z,97505.44
2018-09-06T09:38:56.904Z,97504.63
2018-09-06T09:41:25.990Z,97494.37
2018-09-06T09:43:55.406Z,97499.02
2018-09-06T09:48:53.007Z,97496.89
2018-09-06T09:51:22.036Z,97503.74
2018-09-06T09:53:51.290Z,97497.38
2018-09-06T09:56:20.703Z,97497.61
2018-09-06T09:58:49.740Z,97498.61
2018-09-06T10:01:19.188Z,97488.98
2018-09-06T10:03:53.696Z,97488.27
2018-09-06T10:06:27.998Z,97489.95
2018-09-06T10:09:02.208Z,97484.80
2018-09-06T10:11:31.513Z,97490.20
2018-09-06T10:14:00.864Z,97486.82
2018-09-06T10:16:29.940Z,97493.61
2018-09-06T10:18:59.018Z,97496.94
2018-09-06T10:21:28.119Z,97486.55
2018-09-06T10:23:57.351Z,97499.73
2018-09-06T10:26:27.784Z,97493.25
2018-09-06T10:28:57.112Z,97487.80
2018-09-06T10:31:26.509Z,97490.27
2018-09-06T10:33:55.763Z,97484.69
2018-09-06T10:36:24.984Z,97488.20
2018-09-06T10:38:54.260Z,97479.83
2018-09-06T10:41:23.465Z,97482.81
2018-09-06T10:43:52.583Z,97482.94
2018-09-06T10:46:21.856Z,97473.13
2018-09-06T10:48:50.891Z,97472.73
2018-09-06T10:51:20.380Z,97463.31
2018-09-06T10:53:49.840Z,97456.41
2018-09-06T10:56:19.343Z,97458.25
2018-09-06T10:58:48.402Z,97447.48
2018-09-06T11:01:22.176Z,97456.57
2018-09-06T11:03:53.650Z,97447.48
2018-09-06T11:06:23.063Z,97447.78
2018-09-06T11:08:52.334Z,97446.79
2018-09-06T11:11:21.765Z,97442.86
2018-09-06T11:13:50.743Z,97448.03
2018-09-06T11:16:20.650Z,97439.77
2018-09-06T11:18:50.053Z,97448.29
2018-09-06T11:21:19.503Z,97441.28
2018-09-06T11:23:48.760Z,97441.90
2018-09-06T11:26:17.716Z,97445.84
2018-09-06T11:28:46.855Z,97440.33
2018-09-06T11:31:15.935Z,97442.38
2018-09-06T11:33:45.387Z,97439.33
2018-09-06T11:36:14.456Z,97438.84
2018-09-06T11:38:44.136Z,97441.18
2018-09-06T11:41:13.413Z,97435.59
2018-09-06T11:43:42.733Z,97440.61
2018-09-06T11:46:11.731Z,97440.27
2018-09-06T11:48:41.241Z,97442.42
2018-09-06T11:51:10.626Z,97437.16
2018-09-06T11:53:39.732Z,97445.73
2018-09-06T11:56:09.152Z,97440.81
2018-09-06T11:58:38.453Z,97435.64
2018-09-06T12:01:07.628Z,97433.83
2018-09-06T12:03:37.050Z,97419.25
2018-09-06T12:06:06.115Z,97421.64
2018-09-06T12:08:35.436Z,97427.20
2018-09-06T12:11:04.675Z,97425.62
2018-09-06T12:13:34.053Z,97424.19
2018-09-06T12:16:02.946Z,97423.11
2018-09-06T12:18:32.399Z,97420.27
2018-09-06T12:21:01.760Z,97422.66
2018-09-06T12:23:31.014Z,97417.00
2018-09-06T12:26:00.228Z,97406.84
2018-09-06T12:28:29.496Z,97403.83
2018-09-06T12:30:58.787Z,97403.28
2018-09-06T12:33:28.455Z,97399.40
2018-09-06T12:35:57.818Z,97394.47
2018-09-06T12:38:26.760Z,97393.11
2018-09-06T12:40:55.712Z,97398.81
2018-09-06T12:43:24.786Z,97392.61
2018-09-06T12:45:54.237Z,97395.28
2018-09-06T12:48:23.596Z,97400.40
2018-09-06T12:50:52.948Z,97398.49
2018-09-06T12:53:22.244Z,97392.42
2018-09-06T12:55:51.295Z,97389.84
2018-09-06T12:58:20.577Z,97388.01
2018-09-06T13:00:49.777Z,97386.82
2018-09-06T13:03:19.236Z,97391.64
2018-09-06T13:05:48.725Z,97385.99
2018-09-06T13:08:18.135Z,97385.95
2018-09-06T13:10:47.196Z,97392.00
2018-09-06T13:13:16.597Z,97385.45
2018-09-06T13:15:45.716Z,97385.27
2018-09-06T13:18:14.835Z,97390.11
2018-09-06T13:20:44.283Z,97384.61
2018-09-06T13:23:13.180Z,97376.86
2018-09-06T13:25:42.574Z,97370.09
2018-09-06T13:28:11.943Z,97371.48
2018-09-06T13:30:41.219Z,97375.82
2018-09-06T13:33:10.486Z,97371.58
2018-09-06T13:35:39.693Z,97370.10
2018-09-06T13:38:08.919Z,97371.08
2018-09-06T13:40:38.104Z,97363.19
2018-09-06T13:43:07.099Z,97357.16
2018-09-06T13:45:36.100Z,97354.89
2018-09-06T13:48:05.479Z,97359.22
2018-09-06T13:50:34.641Z,97349.78
2018-09-06T13:53:04.028Z,97339.73
2018-09-06T13:55:32.862Z,97340.42
2018-09-06T13:58:02.114Z,97346.33
2018-09-06T14:00:31.573Z,97349.56
2018-09-06T14:03:00.601Z,97352.02
2018-09-06T14:05:29.775Z,97348.80
2018-09-06T14:07:58.965Z,97354.72
2018-09-06T14:10:28.206Z,97350.33
2018-09-06T14:12:57.532Z,97351.97
2018-09-06T14:15:26.705Z,97346.58
2018-09-06T14:17:55.663Z,97345.48
2018-09-06T14:20:24.764Z,97348.63
2018-09-06T14:22:53.894Z,97348.81
2018-09-06T14:25:23.086Z,97344.81
2018-09-06T14:27:52.286Z,97340.39
2018-09-06T14:30:21.176Z,97335.29
2018-09-06T14:32:50.229Z,97334.28
2018-09-06T14:35:19.505Z,97326.77
2018-09-06T14:37:48.676Z,97327.81
2018-09-06T14:40:17.798Z,97324.95
2018-09-06T14:42:46.937Z,97324.57
2018-09-06T14:45:16.591Z,97323.16
2018-09-06T14:47:46.113Z,97329.16
2018-09-06T14:50:15.431Z,97330.44
2018-09-06T14:52:44.984Z,97324.00
2018-09-06T14:55:14.147Z,97326.98
2018-09-06T14:57:43.386Z,97332.15
2018-09-06T15:00:12.777Z,97325.41
2018-09-06T15:02:42.062Z,97330.52
2018-09-06T15:05:11.191Z,97328.88
2018-09-06T15:07:40.144Z,97327.55
2018-09-06T15:10:09.345Z,97329.97
2018-09-06T15:12:38.619Z,97333.79
2018-09-06T15:15:07.934Z,97320.34
2018-09-06T15:17:37.332Z,97325.45
2018-09-06T15:20:06.473Z,97325.00
2018-09-06T15:22:35.423Z,97329.55
2018-09-06T15:25:04.642Z,97325.31
2018-09-06T15:27:33.896Z,97327.52
2018-09-06T15:30:03.212Z,97321.82
2018-09-06T15:32:32.455Z,97326.23
2018-09-06T15:35:01.864Z,97328.12
2018-09-06T15:37:31.195Z,97333.04
2018-09-06T15:40:00.464Z,97334.91
2018-09-06T15:42:29.906Z,97334.06
2018-09-06T15:44:59.251Z,97335.59
2018-09-06T15:47:28.408Z,97335.77
2018-09-06T15:49:57.546Z,97338.78
2018-09-06T15:52:26.847Z,97338.79
2018-09-06T15:54:55.923Z,97331.00
2018-09-06T15:57:24.992Z,97339.90
2018-09-06T15:59:54.496Z,97342.61
2018-09-06T16:02:23.793Z,97338.55
2018-09-06T16:04:53.140Z,97340.41
2018-09-06T16:07:22.509Z,97345.13
2018-09-06T16:09:51.809Z,97346.80
2018-09-06T16:12:21.081Z,97351.62
2018-09-06T16:14:50.327Z,97355.95
2018-09-06T16:17:19.524Z,97359.66
2018-09-06T16:19:49.011Z,97357.13
2018-09-06T16:22:17.805Z,97362.13
2018-09-06T16:24:47.227Z,97358.09
2018-09-06T16:27:16.463Z,97362.52
2018-09-06T16:29:45.693Z,97359.88
2018-09-06T16:32:15.187Z,97359.14
2018-09-06T16:34:44.524Z,97361.27
2018-09-06T16:37:13.913Z,97365.89
2018-09-06T16:39:43.271Z,97362.93
2018-09-06T16:42:12.311Z,97367.53
2018-09-06T16:44:41.381Z,97366.42
2018-09-06T16:47:10.546Z,97366.11
2018-09-06T16:49:39.805Z,97363.70
2018-09-06T16:52:09.147Z,97372.09
2018-09-06T16:54:38.505Z,97374.05
2018-09-06T16:57:07.752Z,97372.40
2018-09-06T16:59:37.020Z,97375.39
2018-09-06T17:02:06.016Z,97380.02
2018-09-06T17:04:35.174Z,97386.72
2018-09-06T17:07:04.547Z,97389.02
2018-09-06T17:09:33.804Z,97385.15
2018-09-06T17:12:03.127Z,97387.78
2018-09-06T17:14:32.538Z,97385.77
2018-09-06T17:17:01.490Z,97391.31
2018-09-06T17:19:30.625Z,97390.77
2018-09-06T17:21:59.895Z,97394.46
2018-09-06T17:24:29.125Z,97393.86
2018-09-06T17:26:58.366Z,97400.51
2018-09-06T17:29:27.593Z,97405.54
2018-09-06T17:31:56.795Z,97406.45
2018-09-06T17:34:25.927Z,97411.82
2018-09-06T17:36:54.920Z,97406.84
2018-09-06T17:39:24.249Z,97414.05
2018-09-06T17:41:53.552Z,97414.69
2018-09-06T17:44:22.697Z,97415.45
2018-09-06T17:46:52.087Z,97417.33
2018-09-06T17:49:21.452Z,97422.45
2018-09-06T17:51:50.763Z,97418.42
2018-09-06T17:54:20.174Z,97419.62
2018-09-06T17:56:49.581Z,97435.25
2018-09-06T17:59:18.766Z,97427.27
2018-09-06T18:01:47.864Z,97429.64
2018-09-06T18:04:16.996Z,97432.72
2018-09-06T18:06:46.388Z,97428.94
2018-09-06T18:09:16.929Z,97432.63
2018-09-06T18:11:48.021Z,97432.26
2018-09-06T18:14:17.155Z,97429.39
2018-09-06T18:16:47.194Z,97439.52
2018-09-06T18:19:16.568Z,97433.30
2018-09-06T18:21:45.574Z,97434.00
2018-09-06T18:24:14.794Z,97438.09
2018-09-06T18:26:44.015Z,97441.64
2018-09-06T18:29:13.306Z,97440.70
2018-09-06T18:31:42.305Z,97440.06
2018-09-06T18:34:11.748Z,97443.53
2018-09-06T18:36:41.067Z,97442.09
2018-09-06T18:39:10.511Z,97443.22
2018-09-06T18:41:39.953Z,97446.53
2018-09-06T18:44:09.529Z,97456.85
2018-09-06T18:46:39.489Z,97457.64
2018-09-06T18:49:10.732Z,97455.17
2018-09-06T18:51:39.929Z,97461.40
2018-09-06T18:54:09.016Z,97468.51
2018-09-06T18:56:38.311Z,97468.58
2018-09-06T18:59:07.711Z,97473.75
2018-09-06T19:01:37.209Z,97469.62
2018-09-06T19:04:06.559Z,97471.00
2018-09-06T19:06:35.796Z,97472.48
2018-09-06T19:09:06.534Z,97471.92
2018-09-06T19:11:35.801Z,97477.06
2018-09-06T19:14:05.028Z,97472.70
2018-09-06T19:16:34.210Z,97474.38
2018-09-06T19:19:03.343Z,97468.17
2018-09-06T19:21:33.011Z,97467.98
2018-09-06T19:24:02.179Z,97465.22
2018-09-06T19:26:31.610Z,97466.56
2018-09-06T19:29:00.959Z,97466.22
2018-09-06T19:31:30.187Z,97470.80
2018-09-06T19:33:59.651Z,97467.56
2018-09-06T19:36:30.161Z,97470.23
2018-09-06T19:38:59.341Z,97467.14
2018-09-06T19:41:28.299Z,97465.09
2018-09-06T19:43:58.133Z,97464.09
2018-09-06T19:46:27.144Z,97471.50
2018-09-06T19:48:56.431Z,97462.91
2018-09-06T19:51:25.468Z,97458.13
2018-09-06T19:53:54.807Z,97457.27
2018-09-06T19:56:24.008Z,97465.59
2018-09-06T19:58:53.207Z,97460.72
2018-09-06T20:01:22.516Z,97461.88
2018-09-06T20:03:51.531Z,97467.15
2018-09-06T20:06:20.721Z,97471.59
2018-09-06T20:08:49.657Z,97471.79
2018-09-06T20:11:18.884Z,97472.59
2018-09-06T20:13:48.124Z,97469.76
2018-09-06T20:16:17.507Z,97470.53
2018-09-06T20:18:46.403Z,97466.15
2018-09-06T20:21:15.927Z,97472.07
2018-09-06T20:23:45.259Z,97466.44
2018-09-06T20:26:14.523Z,97468.41
2018-09-06T20:28:43.862Z,97469.69
2018-09-06T20:31:13.202Z,97467.02
2018-09-06T20:33:42.601Z,97471.66
2018-09-06T20:36:11.908Z,97472.20
2018-09-06T20:38:41.107Z,97468.13
2018-09-06T20:41:09.995Z,97472.69
2018-09-06T20:43:39.390Z,97471.75
2018-09-06T20:46:08.654Z,97472.46
2018-09-06T20:48:37.979Z,97469.89
2018-09-06T20:51:07.435Z,97470.66
2018-09-06T20:53:36.907Z,97476.73
2018-09-06T20:56:06.238Z,97471.80
2018-09-06T20:58:35.460Z,97473.48
2018-09-06T21:01:04.594Z,97474.11
2018-09-06T21:03:33.674Z,97469.47
2018-09-06T21:06:02.849Z,97476.64
2018-09-06T21:08:32.036Z,97475.44
2018-09-06T21:11:01.435Z,97474.05
2018-09-06T21:13:30.403Z,97473.00
2018-09-06T21:15:59.628Z,97471.57
2018-09-06T21:18:28.551Z,97481.28
2018-09-06T21:20:57.955Z,97479.88
2018-09-06T21:23:26.992Z,97484.80
2018-09-06T21:25:56.316Z,97479.79
2018-09-06T21:28:25.555Z,97486.14
2018-09-06T21:30:54.825Z,97482.23
2018-09-06T21:33:24.100Z,97486.14
2018-09-06T21:35:53.117Z,97487.67
2018-09-06T21:38:22.431Z,97486.91
2018-09-06T21:40:51.657Z,97484.91
2018-09-06T21:43:20.860Z,97482.80
2018-09-06T21:45:50.072Z,97478.64
2018-09-06T21:48:19.271Z,97479.98
2018-09-06T21:50:48.519Z,97477.73
2018-09-06T21:53:17.755Z,97474.48
2018-09-06T21:55:47.115Z,97472.91
2018-09-06T21:58:16.567Z,97470.98
2018-09-06T22:00:45.999Z,97467.97
2018-09-06T22:03:20.052Z,97470.27
2018-09-06T22:05:49.461Z,97472.61
2018-09-06T22:08:18.738Z,97471.55
2018-09-06T22:10:47.856Z,97468.50
2018-09-06T22:13:17.067Z,97466.92
2018-09-06T22:15:46.423Z,97472.61
2018-09-06T22:18:15.495Z,97468.94
2018-09-06T22:20:44.694Z,97464.58
2018-09-06T22:23:14.083Z,97470.65
2018-09-06T22:25:43.437Z,97467.97
2018-09-06T22:28:12.564Z,97468.30
2018-09-06T22:30:41.756Z,97465.34
2018-09-06T22:33:10.752Z,97467.39
2018-09-06T22:35:40.116Z,97467.02
2018-09-06T22:38:09.483Z,97464.42
2018-09-06T22:40:38.594Z,97467.81
2018-09-06T22:43:07.993Z,97465.53
2018-09-06T22:45:36.923Z,97466.24
2018-09-06T22:48:06.398Z,97465.05
2018-09-06T22:50:35.580Z,97467.86
2018-09-06T22:53:04.940Z,97460.22
2018-09-06T22:55:34.219Z,97454.53
2018-09-06T22:58:03.495Z,97453.63
2018-09-06T23:00:32.648Z,97457.20
2018-09-06T23:04:09.668Z,97459.27
2018-09-06T23:06:38.512Z,97451.56
2018-09-06T23:09:09.098Z,97454.86
2018-09-06T23:11:38.163Z,97458.53
2018-09-06T23:14:07.527Z,97452.46
2018-09-06T23:16:36.565Z,97445.40
2018-09-06T23:19:05.878Z,97440.61
2018-09-06T23:21:35.267Z,97443.90
2018-09-06T23:24:04.326Z,97439.17
2018-09-06T23:26:33.349Z,97444.93
2018-09-06T23:29:02.288Z,97446.03
2018-09-06T23:31:31.503Z,97441.41
2018-09-06T23:34:00.796Z,97436.81
2018-09-06T23:36:30.013Z,97442.02
2018-09-06T23:38:59.504Z,97444.00
2018-09-06T23:41:28.899Z,97440.23
2018-09-06T23:43:58.340Z,97442.67
2018-09-06T23:46:27.299Z,97442.02
2018-09-06T23:48:56.263Z,97435.47
2018-09-06T23:51:25.633Z,97440.00
2018-09-06T23:53:54.870Z,97439.63
2018-09-06T23:56:24.025Z,97441.50
2018-09-06T23:58:53.370Z,97440.65
